sensor_id;sensor_type;location;lat;lon;timestamp;P1;durP1;ratioP1;P2;durP2;ratioP2
30605;SDS011;17371;51.328;3.860;2023-06-10T00:00:34;9.83;;;6.40;;
30605;SDS011;17371;51.328;3.860;2023-06-10T00:03:01;9.05;;;6.05;;
30605;SDS011;17371;51.328;3.860;2023-06-10T00:05:27;9.68;;;7.10;;
30605;SDS011;17371;51.328;3.860;2023-06-10T00:07:52;8.90;;;6.78;;
30605;SDS011;17371;51.328;3.860;2023-06-10T00:10:17;11.27;;;7.03;;
30605;SDS011;17371;51.328;3.860;2023-06-10T00:12:43;8.83;;;6.73;;
30605;SDS011;17371;51.328;3.860;2023-06-10T00:15:08;9.27;;;6.47;;
30605;SDS011;17371;51.328;3.860;2023-06-10T00:17:34;11.98;;;7.43;;
30605;SDS011;17371;51.328;3.860;2023-06-10T00:20:01;10.10;;;6.37;;
30605;SDS011;17371;51.328;3.860;2023-06-10T00:22:27;9.15;;;6.97;;
30605;SDS011;17371;51.328;3.860;2023-06-10T00:24:52;9.07;;;6.73;;
30605;SDS011;17371;51.328;3.860;2023-06-10T00:27:18;8.90;;;6.43;;
30605;SDS011;17371;51.328;3.860;2023-06-10T00:29:43;10.07;;;6.70;;
30605;SDS011;17371;51.328;3.860;2023-06-10T00:32:08;8.57;;;6.38;;
30605;SDS011;17371;51.328;3.860;2023-06-10T00:34:34;9.60;;;6.60;;
30605;SDS011;17371;51.328;3.860;2023-06-10T00:37:01;10.60;;;6.73;;
30605;SDS011;17371;51.328;3.860;2023-06-10T00:39:26;11.07;;;6.68;;
30605;SDS011;17371;51.328;3.860;2023-06-10T00:41:52;12.10;;;6.63;;
30605;SDS011;17371;51.328;3.860;2023-06-10T00:44:17;10.67;;;6.63;;
30605;SDS011;17371;51.328;3.860;2023-06-10T00:46:42;9.87;;;6.80;;
30605;SDS011;17371;51.328;3.860;2023-06-10T00:49:08;9.57;;;6.72;;
30605;SDS011;17371;51.328;3.860;2023-06-10T00:51:33;8.97;;;6.03;;
30605;SDS011;17371;51.328;3.860;2023-06-10T00:54:00;9.23;;;6.83;;
30605;SDS011;17371;51.328;3.860;2023-06-10T00:56:26;9.50;;;6.45;;
30605;SDS011;17371;51.328;3.860;2023-06-10T00:58:52;11.10;;;6.53;;
30605;SDS011;17371;51.328;3.860;2023-06-10T01:01:17;10.25;;;7.47;;
30605;SDS011;17371;51.328;3.860;2023-06-10T01:03:42;10.48;;;7.35;;
30605;SDS011;17371;51.328;3.860;2023-06-10T01:06:10;10.67;;;7.47;;
30605;SDS011;17371;51.328;3.860;2023-06-10T01:08:44;16.73;;;7.15;;
30605;SDS011;17371;51.328;3.860;2023-06-10T01:11:17;10.65;;;7.00;;
30605;SDS011;17371;51.328;3.860;2023-06-10T01:13:44;11.00;;;7.13;;
30605;SDS011;17371;51.328;3.860;2023-06-10T01:16:10;12.32;;;7.35;;
30605;SDS011;17371;51.328;3.860;2023-06-10T01:18:36;10.85;;;7.00;;
30605;SDS011;17371;51.328;3.860;2023-06-10T01:21:02;9.90;;;7.03;;
30605;SDS011;17371;51.328;3.860;2023-06-10T01:23:28;13.20;;;7.53;;
30605;SDS011;17371;51.328;3.860;2023-06-10T01:25:57;10.52;;;7.18;;
30605;SDS011;17371;51.328;3.860;2023-06-10T01:28:25;12.52;;;7.35;;
30605;SDS011;17371;51.328;3.860;2023-06-10T01:30:55;12.10;;;7.85;;
30605;SDS011;17371;51.328;3.860;2023-06-10T01:33:26;10.50;;;7.07;;
30605;SDS011;17371;51.328;3.860;2023-06-10T01:35:53;12.00;;;7.00;;
30605;SDS011;17371;51.328;3.860;2023-06-10T01:38:19;10.50;;;7.32;;
30605;SDS011;17371;51.328;3.860;2023-06-10T01:40:47;11.25;;;7.13;;
30605;SDS011;17371;51.328;3.860;2023-06-10T01:43:13;13.13;;;7.60;;
30605;SDS011;17371;51.328;3.860;2023-06-10T01:45:38;16.33;;;7.07;;
30605;SDS011;17371;51.328;3.860;2023-06-10T01:48:04;11.70;;;7.33;;
30605;SDS011;17371;51.328;3.860;2023-06-10T01:50:30;11.32;;;7.18;;
30605;SDS011;17371;51.328;3.860;2023-06-10T01:52:56;10.60;;;7.57;;
30605;SDS011;17371;51.328;3.860;2023-06-10T01:55:22;10.50;;;7.50;;
30605;SDS011;17371;51.328;3.860;2023-06-10T01:57:49;14.05;;;7.40;;
30605;SDS011;17371;51.328;3.860;2023-06-10T02:00:15;9.80;;;6.95;;
30605;SDS011;17371;51.328;3.860;2023-06-10T02:02:40;11.10;;;7.35;;
30605;SDS011;17371;51.328;3.860;2023-06-10T02:05:06;11.57;;;7.05;;
30605;SDS011;17371;51.328;3.860;2023-06-10T02:07:32;11.75;;;7.30;;
30605;SDS011;17371;51.328;3.860;2023-06-10T02:09:57;12.63;;;7.47;;
30605;SDS011;17371;51.328;3.860;2023-06-10T02:12:22;12.93;;;7.70;;
30605;SDS011;17371;51.328;3.860;2023-06-10T02:14:49;12.23;;;7.55;;
30605;SDS011;17371;51.328;3.860;2023-06-10T02:17:15;12.63;;;7.87;;
30605;SDS011;17371;51.328;3.860;2023-06-10T02:19:40;11.90;;;6.82;;
30605;SDS011;17371;51.328;3.860;2023-06-10T02:22:06;11.67;;;7.43;;
30605;SDS011;17371;51.328;3.860;2023-06-10T02:24:31;11.83;;;7.97;;
30605;SDS011;17371;51.328;3.860;2023-06-10T02:26:56;11.82;;;7.93;;
30605;SDS011;17371;51.328;3.860;2023-06-10T02:29:22;14.48;;;7.93;;
30605;SDS011;17371;51.328;3.860;2023-06-10T02:31:49;11.33;;;7.50;;
30605;SDS011;17371;51.328;3.860;2023-06-10T02:34:14;11.82;;;7.70;;
30605;SDS011;17371;51.328;3.860;2023-06-10T02:36:39;13.67;;;8.07;;
30605;SDS011;17371;51.328;3.860;2023-06-10T02:39:05;10.33;;;7.70;;
30605;SDS011;17371;51.328;3.860;2023-06-10T02:41:30;10.10;;;7.27;;
30605;SDS011;17371;51.328;3.860;2023-06-10T02:43:55;11.47;;;7.40;;
30605;SDS011;17371;51.328;3.860;2023-06-10T02:46:21;11.13;;;7.55;;
30605;SDS011;17371;51.328;3.860;2023-06-10T02:48:47;15.02;;;7.82;;
30605;SDS011;17371;51.328;3.860;2023-06-10T02:51:13;15.57;;;8.20;;
30605;SDS011;17371;51.328;3.860;2023-06-10T02:53:38;10.77;;;7.90;;
30605;SDS011;17371;51.328;3.860;2023-06-10T02:56:04;12.77;;;7.77;;
30605;SDS011;17371;51.328;3.860;2023-06-10T02:58:29;11.33;;;7.33;;
30605;SDS011;17371;51.328;3.860;2023-06-10T03:00:55;13.03;;;8.20;;
30605;SDS011;17371;51.328;3.860;2023-06-10T03:03:20;11.65;;;7.88;;
30605;SDS011;17371;51.328;3.860;2023-06-10T03:05:47;12.80;;;8.47;;
30605;SDS011;17371;51.328;3.860;2023-06-10T03:08:12;13.35;;;8.25;;
30605;SDS011;17371;51.328;3.860;2023-06-10T03:10:38;11.80;;;7.87;;
30605;SDS011;17371;51.328;3.860;2023-06-10T03:13:03;13.80;;;8.27;;
30605;SDS011;17371;51.328;3.860;2023-06-10T03:15:28;12.43;;;8.07;;
30605;SDS011;17371;51.328;3.860;2023-06-10T03:17:54;13.40;;;7.87;;
30605;SDS011;17371;51.328;3.860;2023-06-10T03:20:19;12.23;;;7.93;;
30605;SDS011;17371;51.328;3.860;2023-06-10T03:22:46;13.40;;;8.48;;
30605;SDS011;17371;51.328;3.860;2023-06-10T03:25:11;11.35;;;8.00;;
30605;SDS011;17371;51.328;3.860;2023-06-10T03:27:37;12.88;;;8.10;;
30605;SDS011;17371;51.328;3.860;2023-06-10T03:30:02;13.67;;;8.70;;
30605;SDS011;17371;51.328;3.860;2023-06-10T03:32:28;11.95;;;8.30;;
30605;SDS011;17371;51.328;3.860;2023-06-10T03:34:53;13.82;;;8.85;;
30605;SDS011;17371;51.328;3.860;2023-06-10T03:37:18;12.87;;;8.77;;
30605;SDS011;17371;51.328;3.860;2023-06-10T03:39:45;12.90;;;8.43;;
30605;SDS011;17371;51.328;3.860;2023-06-10T03:42:11;17.10;;;8.88;;
30605;SDS011;17371;51.328;3.860;2023-06-10T03:44:36;15.37;;;8.47;;
30605;SDS011;17371;51.328;3.860;2023-06-10T03:47:01;14.40;;;9.00;;
30605;SDS011;17371;51.328;3.860;2023-06-10T03:49:27;13.15;;;9.00;;
30605;SDS011;17371;51.328;3.860;2023-06-10T03:51:52;13.30;;;8.63;;
30605;SDS011;17371;51.328;3.860;2023-06-10T03:54:18;16.13;;;8.83;;
30605;SDS011;17371;51.328;3.860;2023-06-10T03:56:44;13.33;;;8.77;;
30605;SDS011;17371;51.328;3.860;2023-06-10T03:59:10;13.15;;;8.88;;
30605;SDS011;17371;51.328;3.860;2023-06-10T04:01:35;13.10;;;8.70;;
30605;SDS011;17371;51.328;3.860;2023-06-10T04:04:00;14.07;;;8.87;;
30605;SDS011;17371;51.328;3.860;2023-06-10T04:06:26;14.60;;;9.23;;
30605;SDS011;17371;51.328;3.860;2023-06-10T04:08:51;13.18;;;8.65;;
30605;SDS011;17371;51.328;3.860;2023-06-10T04:11:17;13.60;;;8.80;;
30605;SDS011;17371;51.328;3.860;2023-06-10T04:13:43;13.97;;;9.23;;
30605;SDS011;17371;51.328;3.860;2023-06-10T04:16:09;13.73;;;9.20;;
30605;SDS011;17371;51.328;3.860;2023-06-10T04:18:34;14.53;;;9.03;;
30605;SDS011;17371;51.328;3.860;2023-06-10T04:20:59;12.43;;;8.43;;
30605;SDS011;17371;51.328;3.860;2023-06-10T04:23:25;14.33;;;8.80;;
30605;SDS011;17371;51.328;3.860;2023-06-10T04:25:50;14.43;;;8.63;;
30605;SDS011;17371;51.328;3.860;2023-06-10T04:28:16;14.10;;;8.88;;
30605;SDS011;17371;51.328;3.860;2023-06-10T04:30:42;13.00;;;8.27;;
30605;SDS011;17371;51.328;3.860;2023-06-10T04:33:08;13.85;;;8.88;;
30605;SDS011;17371;51.328;3.860;2023-06-10T04:35:33;11.80;;;8.20;;
30605;SDS011;17371;51.328;3.860;2023-06-10T04:37:58;14.53;;;9.60;;
30605;SDS011;17371;51.328;3.860;2023-06-10T04:40:24;14.93;;;8.97;;
30605;SDS011;17371;51.328;3.860;2023-06-10T04:42:49;12.73;;;8.47;;
30605;SDS011;17371;51.328;3.860;2023-06-10T04:45:15;14.57;;;8.90;;
30605;SDS011;17371;51.328;3.860;2023-06-10T04:47:41;12.90;;;8.50;;
30605;SDS011;17371;51.328;3.860;2023-06-10T04:50:07;13.75;;;8.52;;
30605;SDS011;17371;51.328;3.860;2023-06-10T04:52:33;12.03;;;8.37;;
30605;SDS011;17371;51.328;3.860;2023-06-10T04:54:58;13.57;;;8.60;;
30605;SDS011;17371;51.328;3.860;2023-06-10T04:57:24;14.60;;;8.30;;
30605;SDS011;17371;51.328;3.860;2023-06-10T04:59:49;14.30;;;9.13;;
30605;SDS011;17371;51.328;3.860;2023-06-10T05:02:15;12.77;;;8.70;;
30605;SDS011;17371;51.328;3.860;2023-06-10T05:04:41;11.70;;;8.27;;
30605;SDS011;17371;51.328;3.860;2023-06-10T05:07:07;12.70;;;8.35;;
30605;SDS011;17371;51.328;3.860;2023-06-10T05:09:32;12.33;;;8.77;;
30605;SDS011;17371;51.328;3.860;2023-06-10T05:11:58;10.98;;;8.20;;
30605;SDS011;17371;51.328;3.860;2023-06-10T05:14:23;13.93;;;8.63;;
30605;SDS011;17371;51.328;3.860;2023-06-10T05:16:48;13.67;;;9.37;;
30605;SDS011;17371;51.328;3.860;2023-06-10T05:19:14;13.97;;;9.00;;
30605;SDS011;17371;51.328;3.860;2023-06-10T05:21:41;13.13;;;8.85;;
30605;SDS011;17371;51.328;3.860;2023-06-10T05:24:06;11.73;;;8.50;;
30605;SDS011;17371;51.328;3.860;2023-06-10T05:26:32;13.95;;;8.40;;
30605;SDS011;17371;51.328;3.860;2023-06-10T05:28:57;14.50;;;8.80;;
30605;SDS011;17371;51.328;3.860;2023-06-10T05:31:23;14.80;;;8.70;;
30605;SDS011;17371;51.328;3.860;2023-06-10T05:33:48;12.90;;;8.27;;
30605;SDS011;17371;51.328;3.860;2023-06-10T05:36:13;13.90;;;8.70;;
30605;SDS011;17371;51.328;3.860;2023-06-10T05:38:40;12.00;;;8.33;;
30605;SDS011;17371;51.328;3.860;2023-06-10T05:41:05;12.60;;;8.38;;
30605;SDS011;17371;51.328;3.860;2023-06-10T05:43:31;11.53;;;8.67;;
30605;SDS011;17371;51.328;3.860;2023-06-10T05:45:56;13.90;;;8.37;;
30605;SDS011;17371;51.328;3.860;2023-06-10T05:48:22;14.77;;;8.63;;
30605;SDS011;17371;51.328;3.860;2023-06-10T05:50:47;12.00;;;8.25;;
30605;SDS011;17371;51.328;3.860;2023-06-10T05:53:12;11.33;;;8.23;;
30605;SDS011;17371;51.328;3.860;2023-06-10T05:55:39;15.73;;;8.37;;
30605;SDS011;17371;51.328;3.860;2023-06-10T05:58:04;14.20;;;8.05;;
30605;SDS011;17371;51.328;3.860;2023-06-10T06:00:30;12.77;;;7.87;;
30605;SDS011;17371;51.328;3.860;2023-06-10T06:02:55;12.13;;;8.30;;
30605;SDS011;17371;51.328;3.860;2023-06-10T06:05:21;11.87;;;8.40;;
30605;SDS011;17371;51.328;3.860;2023-06-10T06:07:46;12.10;;;8.38;;
30605;SDS011;17371;51.328;3.860;2023-06-10T06:10:11;12.53;;;8.50;;
30605;SDS011;17371;51.328;3.860;2023-06-10T06:12:38;12.27;;;8.90;;
30605;SDS011;17371;51.328;3.860;2023-06-10T06:15:04;13.60;;;8.20;;
30605;SDS011;17371;51.328;3.860;2023-06-10T06:17:30;11.23;;;8.23;;
30605;SDS011;17371;51.328;3.860;2023-06-10T06:19:55;10.93;;;8.27;;
30605;SDS011;17371;51.328;3.860;2023-06-10T06:22:21;12.00;;;8.63;;
30605;SDS011;17371;51.328;3.860;2023-06-10T06:24:46;12.20;;;7.90;;
30605;SDS011;17371;51.328;3.860;2023-06-10T06:27:11;13.57;;;7.80;;
30605;SDS011;17371;51.328;3.860;2023-06-10T06:29:38;11.40;;;8.25;;
30605;SDS011;17371;51.328;3.860;2023-06-10T06:32:04;9.90;;;7.60;;
30605;SDS011;17371;51.328;3.860;2023-06-10T06:34:30;10.75;;;7.93;;
30605;SDS011;17371;51.328;3.860;2023-06-10T06:36:55;12.83;;;7.73;;
30605;SDS011;17371;51.328;3.860;2023-06-10T06:39:21;11.05;;;7.63;;
30605;SDS011;17371;51.328;3.860;2023-06-10T06:41:46;12.02;;;7.35;;
30605;SDS011;17371;51.328;3.860;2023-06-10T06:44:11;15.23;;;7.87;;
30605;SDS011;17371;51.328;3.860;2023-06-10T06:46:38;12.00;;;7.60;;
30605;SDS011;17371;51.328;3.860;2023-06-10T06:49:03;9.93;;;7.70;;
30605;SDS011;17371;51.328;3.860;2023-06-10T06:51:29;11.47;;;8.27;;
30605;SDS011;17371;51.328;3.860;2023-06-10T06:53:54;10.40;;;7.87;;
30605;SDS011;17371;51.328;3.860;2023-06-10T06:56:20;12.03;;;8.03;;
30605;SDS011;17371;51.328;3.860;2023-06-10T06:58:45;11.35;;;7.72;;
30605;SDS011;17371;51.328;3.860;2023-06-10T07:01:10;12.93;;;7.27;;
30605;SDS011;17371;51.328;3.860;2023-06-10T07:03:37;10.23;;;7.77;;
30605;SDS011;17371;51.328;3.860;2023-06-10T07:06:03;10.23;;;7.47;;
30605;SDS011;17371;51.328;3.860;2023-06-10T07:08:28;11.47;;;7.63;;
30605;SDS011;17371;51.328;3.860;2023-06-10T07:10:54;11.90;;;7.70;;
30605;SDS011;17371;51.328;3.860;2023-06-10T07:13:19;11.52;;;7.68;;
30605;SDS011;17371;51.328;3.860;2023-06-10T07:15:44;12.20;;;7.73;;
30605;SDS011;17371;51.328;3.860;2023-06-10T07:18:10;13.73;;;7.80;;
30605;SDS011;17371;51.328;3.860;2023-06-10T07:20:36;9.60;;;7.20;;
30605;SDS011;17371;51.328;3.860;2023-06-10T07:23:02;16.42;;;7.55;;
30605;SDS011;17371;51.328;3.860;2023-06-10T07:25:27;10.73;;;7.37;;
30605;SDS011;17371;51.328;3.860;2023-06-10T07:27:53;10.90;;;7.50;;
30605;SDS011;17371;51.328;3.860;2023-06-10T07:30:18;47.53;;;10.57;;
30605;SDS011;17371;51.328;3.860;2023-06-10T07:32:43;10.53;;;7.10;;
30605;SDS011;17371;51.328;3.860;2023-06-10T07:35:09;10.97;;;7.67;;
30605;SDS011;17371;51.328;3.860;2023-06-10T07:37:36;9.38;;;7.03;;
30605;SDS011;17371;51.328;3.860;2023-06-10T07:40:01;9.17;;;6.60;;
30605;SDS011;17371;51.328;3.860;2023-06-10T07:42:27;11.48;;;7.28;;
30605;SDS011;17371;51.328;3.860;2023-06-10T07:44:53;11.10;;;7.03;;
30605;SDS011;17371;51.328;3.860;2023-06-10T07:47:18;9.73;;;6.93;;
30605;SDS011;17371;51.328;3.860;2023-06-10T07:49:43;10.05;;;7.10;;
30605;SDS011;17371;51.328;3.860;2023-06-10T07:52:09;10.97;;;6.40;;
30605;SDS011;17371;51.328;3.860;2023-06-10T07:54:35;9.50;;;6.47;;
30605;SDS011;17371;51.328;3.860;2023-06-10T07:57:01;11.55;;;6.65;;
30605;SDS011;17371;51.328;3.860;2023-06-10T07:59:26;10.57;;;6.30;;
30605;SDS011;17371;51.328;3.860;2023-06-10T08:01:52;11.40;;;6.70;;
30605;SDS011;17371;51.328;3.860;2023-06-10T08:04:18;9.02;;;6.72;;
30605;SDS011;17371;51.328;3.860;2023-06-10T08:06:43;10.60;;;6.17;;
30605;SDS011;17371;51.328;3.860;2023-06-10T08:09:08;11.00;;;6.80;;
30605;SDS011;17371;51.328;3.860;2023-06-10T08:11:35;10.65;;;6.60;;
30605;SDS011;17371;51.328;3.860;2023-06-10T08:14:01;9.27;;;6.40;;
30605;SDS011;17371;51.328;3.860;2023-06-10T08:16:26;12.18;;;6.90;;
30605;SDS011;17371;51.328;3.860;2023-06-10T08:18:51;10.20;;;6.37;;
30605;SDS011;17371;51.328;3.860;2023-06-10T08:21:17;9.10;;;6.23;;
30605;SDS011;17371;51.328;3.860;2023-06-10T08:23:42;9.23;;;6.07;;
30605;SDS011;17371;51.328;3.860;2023-06-10T08:26:08;9.87;;;5.77;;
30605;SDS011;17371;51.328;3.860;2023-06-10T08:28:34;8.75;;;6.13;;
30605;SDS011;17371;51.328;3.860;2023-06-10T08:31:00;9.73;;;6.28;;
30605;SDS011;17371;51.328;3.860;2023-06-10T08:33:25;10.17;;;6.13;;
30605;SDS011;17371;51.328;3.860;2023-06-10T08:35:51;11.00;;;5.83;;
30605;SDS011;17371;51.328;3.860;2023-06-10T08:38:16;6.60;;;5.17;;
30605;SDS011;17371;51.328;3.860;2023-06-10T08:40:41;7.83;;;5.80;;
30605;SDS011;17371;51.328;3.860;2023-06-10T08:43:07;9.45;;;5.60;;
30605;SDS011;17371;51.328;3.860;2023-06-10T08:45:37;7.80;;;5.30;;
30605;SDS011;17371;51.328;3.860;2023-06-10T08:48:03;7.03;;;5.47;;
30605;SDS011;17371;51.328;3.860;2023-06-10T08:50:29;7.80;;;5.20;;
30605;SDS011;17371;51.328;3.860;2023-06-10T08:52:55;7.47;;;5.03;;
30605;SDS011;17371;51.328;3.860;2023-06-10T08:55:23;9.10;;;5.57;;
30605;SDS011;17371;51.328;3.860;2023-06-10T08:57:52;8.00;;;5.13;;
30605;SDS011;17371;51.328;3.860;2023-06-10T09:00:18;7.38;;;5.53;;
30605;SDS011;17371;51.328;3.860;2023-06-10T09:02:45;7.67;;;5.80;;
30605;SDS011;17371;51.328;3.860;2023-06-10T09:05:11;8.40;;;5.15;;
30605;SDS011;17371;51.328;3.860;2023-06-10T09:07:37;8.10;;;5.23;;
30605;SDS011;17371;51.328;3.860;2023-06-10T09:10:03;7.35;;;5.20;;
30605;SDS011;17371;51.328;3.860;2023-06-10T09:12:29;7.57;;;5.13;;
30605;SDS011;17371;51.328;3.860;2023-06-10T09:14:55;8.37;;;5.33;;
30605;SDS011;17371;51.328;3.860;2023-06-10T09:17:20;7.63;;;5.43;;
30605;SDS011;17371;51.328;3.860;2023-06-10T09:19:47;7.70;;;5.30;;
30605;SDS011;17371;51.328;3.860;2023-06-10T09:22:13;7.93;;;4.95;;
30605;SDS011;17371;51.328;3.860;2023-06-10T09:24:38;6.93;;;5.10;;
30605;SDS011;17371;51.328;3.860;2023-06-10T09:27:04;7.73;;;5.00;;
30605;SDS011;17371;51.328;3.860;2023-06-10T09:29:31;6.40;;;4.75;;
30605;SDS011;17371;51.328;3.860;2023-06-10T09:31:56;7.32;;;4.97;;
30605;SDS011;17371;51.328;3.860;2023-06-10T09:34:24;9.80;;;5.00;;
30605;SDS011;17371;51.328;3.860;2023-06-10T09:36:51;9.52;;;5.20;;
30605;SDS011;17371;51.328;3.860;2023-06-10T09:39:17;6.93;;;5.10;;
30605;SDS011;17371;51.328;3.860;2023-06-10T09:41:43;8.52;;;5.10;;
30605;SDS011;17371;51.328;3.860;2023-06-10T09:44:11;6.70;;;4.88;;
30605;SDS011;17371;51.328;3.860;2023-06-10T09:46:37;7.65;;;5.00;;
30605;SDS011;17371;51.328;3.860;2023-06-10T09:49:02;6.20;;;4.73;;
30605;SDS011;17371;51.328;3.860;2023-06-10T09:51:28;8.67;;;4.80;;
30605;SDS011;17371;51.328;3.860;2023-06-10T09:53:54;6.03;;;4.50;;
30605;SDS011;17371;51.328;3.860;2023-06-10T09:56:20;6.88;;;4.80;;
30605;SDS011;17371;51.328;3.860;2023-06-10T09:58:45;5.57;;;4.33;;
30605;SDS011;17371;51.328;3.860;2023-06-10T10:01:11;7.53;;;4.90;;
30605;SDS011;17371;51.328;3.860;2023-06-10T10:03:42;10.25;;;4.57;;
30605;SDS011;17371;51.328;3.860;2023-06-10T10:06:09;5.60;;;4.00;;
30605;SDS011;17371;51.328;3.860;2023-06-10T10:08:36;6.20;;;4.63;;
30605;SDS011;17371;51.328;3.860;2023-06-10T10:11:02;15.93;;;5.40;;
30605;SDS011;17371;51.328;3.860;2023-06-10T10:13:28;8.65;;;4.63;;
30605;SDS011;17371;51.328;3.860;2023-06-10T10:15:54;6.85;;;4.40;;
30605;SDS011;17371;51.328;3.860;2023-06-10T10:18:21;6.10;;;4.20;;
30605;SDS011;17371;51.328;3.860;2023-06-10T10:20:50;8.23;;;4.07;;
30605;SDS011;17371;51.328;3.860;2023-06-10T10:23:16;6.28;;;4.47;;
30605;SDS011;17371;51.328;3.860;2023-06-10T10:25:49;6.80;;;4.82;;
30605;SDS011;17371;51.328;3.860;2023-06-10T10:28:18;9.98;;;5.03;;
30605;SDS011;17371;51.328;3.860;2023-06-10T10:30:47;6.20;;;4.53;;
30605;SDS011;17371;51.328;3.860;2023-06-10T10:33:16;8.25;;;4.70;;
30605;SDS011;17371;51.328;3.860;2023-06-10T10:35:44;6.47;;;4.78;;
30605;SDS011;17371;51.328;3.860;2023-06-10T10:38:10;8.18;;;4.82;;
30605;SDS011;17371;51.328;3.860;2023-06-10T10:40:36;5.80;;;4.33;;
30605;SDS011;17371;51.328;3.860;2023-06-10T10:43:02;10.25;;;4.80;;
30605;SDS011;17371;51.328;3.860;2023-06-10T10:45:29;8.05;;;4.65;;
30605;SDS011;17371;51.328;3.860;2023-06-10T10:47:55;5.60;;;4.67;;
30605;SDS011;17371;51.328;3.860;2023-06-10T10:50:21;6.32;;;4.57;;
30605;SDS011;17371;51.328;3.860;2023-06-10T10:52:52;7.27;;;4.87;;
30605;SDS011;17371;51.328;3.860;2023-06-10T10:55:19;6.75;;;5.20;;
30605;SDS011;17371;51.328;3.860;2023-06-10T10:57:44;8.50;;;5.05;;
30605;SDS011;17371;51.328;3.860;2023-06-10T11:00:24;6.63;;;4.93;;
30605;SDS011;17371;51.328;3.860;2023-06-10T11:02:52;6.80;;;4.73;;
30605;SDS011;17371;51.328;3.860;2023-06-10T11:05:18;7.57;;;4.97;;
30605;SDS011;17371;51.328;3.860;2023-06-10T11:08:02;8.43;;;4.70;;
30605;SDS011;17371;51.328;3.860;2023-06-10T11:10:28;9.17;;;5.10;;
30605;SDS011;17371;51.328;3.860;2023-06-10T11:12:54;7.28;;;4.78;;
30605;SDS011;17371;51.328;3.860;2023-06-10T11:15:22;7.80;;;4.90;;
30605;SDS011;17371;51.328;3.860;2023-06-10T11:18:08;7.82;;;4.70;;
30605;SDS011;17371;51.328;3.860;2023-06-10T11:20:42;6.72;;;4.97;;
30605;SDS011;17371;51.328;3.860;2023-06-10T11:23:11;7.40;;;5.07;;
30605;SDS011;17371;51.328;3.860;2023-06-10T11:25:50;6.68;;;5.05;;
30605;SDS011;17371;51.328;3.860;2023-06-10T11:28:17;6.53;;;4.93;;
30605;SDS011;17371;51.328;3.860;2023-06-10T11:30:43;6.32;;;4.65;;
30605;SDS011;17371;51.328;3.860;2023-06-10T11:33:09;7.53;;;5.10;;
30605;SDS011;17371;51.328;3.860;2023-06-10T11:35:40;12.02;;;4.85;;
30605;SDS011;17371;51.328;3.860;2023-06-10T11:38:05;10.03;;;4.87;;
30605;SDS011;17371;51.328;3.860;2023-06-10T11:40:30;6.23;;;4.80;;
30605;SDS011;17371;51.328;3.860;2023-06-10T11:42:56;8.10;;;5.07;;
30605;SDS011;17371;51.328;3.860;2023-06-10T11:45:23;6.28;;;5.00;;
30605;SDS011;17371;51.328;3.860;2023-06-10T11:47:57;9.13;;;4.77;;
30605;SDS011;17371;51.328;3.860;2023-06-10T11:50:31;8.90;;;5.18;;
30605;SDS011;17371;51.328;3.860;2023-06-10T11:52:57;6.63;;;4.97;;
30605;SDS011;17371;51.328;3.860;2023-06-10T11:55:22;6.07;;;4.63;;
30605;SDS011;17371;51.328;3.860;2023-06-10T11:57:48;6.47;;;4.57;;
30605;SDS011;17371;51.328;3.860;2023-06-10T12:00:14;6.67;;;5.07;;
30605;SDS011;17371;51.328;3.860;2023-06-10T12:02:40;12.45;;;5.28;;
30605;SDS011;17371;51.328;3.860;2023-06-10T12:05:14;8.90;;;5.60;;
30605;SDS011;17371;51.328;3.860;2023-06-10T12:07:41;7.60;;;4.85;;
30605;SDS011;17371;51.328;3.860;2023-06-10T12:10:07;5.93;;;4.57;;
30605;SDS011;17371;51.328;3.860;2023-06-10T12:12:34;6.45;;;5.05;;
30605;SDS011;17371;51.328;3.860;2023-06-10T12:14:59;7.37;;;4.70;;
30605;SDS011;17371;51.328;3.860;2023-06-10T12:17:35;7.95;;;5.10;;
30605;SDS011;17371;51.328;3.860;2023-06-10T12:20:02;8.48;;;4.70;;
30605;SDS011;17371;51.328;3.860;2023-06-10T12:22:35;7.53;;;5.07;;
30605;SDS011;17371;51.328;3.860;2023-06-10T12:25:03;6.35;;;4.50;;
30605;SDS011;17371;51.328;3.860;2023-06-10T12:27:30;6.47;;;5.07;;
30605;SDS011;17371;51.328;3.860;2023-06-10T12:29:56;8.37;;;5.27;;
30605;SDS011;17371;51.328;3.860;2023-06-10T12:32:21;7.80;;;5.13;;
30605;SDS011;17371;51.328;3.860;2023-06-10T12:34:47;5.67;;;4.43;;
30605;SDS011;17371;51.328;3.860;2023-06-10T12:37:12;6.75;;;4.55;;
30605;SDS011;17371;51.328;3.860;2023-06-10T12:39:38;6.97;;;4.43;;
30605;SDS011;17371;51.328;3.860;2023-06-10T12:42:05;10.27;;;5.40;;
30605;SDS011;17371;51.328;3.860;2023-06-10T12:44:31;7.57;;;5.37;;
30605;SDS011;17371;51.328;3.860;2023-06-10T12:46:57;6.35;;;4.60;;
30605;SDS011;17371;51.328;3.860;2023-06-10T12:49:23;8.33;;;4.93;;
30605;SDS011;17371;51.328;3.860;2023-06-10T12:51:48;6.85;;;4.82;;
30605;SDS011;17371;51.328;3.860;2023-06-10T12:54:14;6.67;;;5.03;;
30605;SDS011;17371;51.328;3.860;2023-06-10T12:56:39;7.73;;;4.83;;
30605;SDS011;17371;51.328;3.860;2023-06-10T12:59:06;8.13;;;4.68;;
30605;SDS011;17371;51.328;3.860;2023-06-10T13:01:31;8.10;;;4.90;;
30605;SDS011;17371;51.328;3.860;2023-06-10T13:03:57;5.88;;;4.57;;
30605;SDS011;17371;51.328;3.860;2023-06-10T13:06:22;7.17;;;5.13;;
30605;SDS011;17371;51.328;3.860;2023-06-10T13:08:48;6.57;;;4.90;;
30605;SDS011;17371;51.328;3.860;2023-06-10T13:11:13;7.07;;;4.90;;
30605;SDS011;17371;51.328;3.860;2023-06-10T13:13:39;6.53;;;5.35;;
30605;SDS011;17371;51.328;3.860;2023-06-10T13:16:05;7.45;;;5.30;;
30605;SDS011;17371;51.328;3.860;2023-06-10T13:18:31;5.80;;;4.50;;
30605;SDS011;17371;51.328;3.860;2023-06-10T13:20:56;6.13;;;4.78;;
30605;SDS011;17371;51.328;3.860;2023-06-10T13:23:22;7.27;;;5.03;;
30605;SDS011;17371;51.328;3.860;2023-06-10T13:25:47;7.93;;;5.23;;
30605;SDS011;17371;51.328;3.860;2023-06-10T13:28:12;6.73;;;5.23;;
30605;SDS011;17371;51.328;3.860;2023-06-10T13:30:38;8.68;;;4.93;;
30605;SDS011;17371;51.328;3.860;2023-06-10T13:33:05;7.77;;;4.83;;
30605;SDS011;17371;51.328;3.860;2023-06-10T13:35:30;6.63;;;5.10;;
30605;SDS011;17371;51.328;3.860;2023-06-10T13:37:55;8.17;;;5.17;;
30605;SDS011;17371;51.328;3.860;2023-06-10T13:40:21;7.30;;;5.50;;
30605;SDS011;17371;51.328;3.860;2023-06-10T13:42:46;6.83;;;4.83;;
30605;SDS011;17371;51.328;3.860;2023-06-10T13:45:12;7.20;;;4.80;;
30605;SDS011;17371;51.328;3.860;2023-06-10T13:47:37;6.43;;;5.00;;
30605;SDS011;17371;51.328;3.860;2023-06-10T13:50:04;9.10;;;4.97;;
30605;SDS011;17371;51.328;3.860;2023-06-10T13:52:31;6.78;;;5.07;;
30605;SDS011;17371;51.328;3.860;2023-06-10T13:54:56;8.30;;;4.73;;
30605;SDS011;17371;51.328;3.860;2023-06-10T13:57:21;6.57;;;4.90;;
30605;SDS011;17371;51.328;3.860;2023-06-10T13:59:47;7.97;;;5.33;;
30605;SDS011;17371;51.328;3.860;2023-06-10T14:02:12;6.53;;;4.97;;
30605;SDS011;17371;51.328;3.860;2023-06-10T14:04:37;6.88;;;5.07;;
30605;SDS011;17371;51.328;3.860;2023-06-10T14:07:04;7.27;;;5.00;;
30605;SDS011;17371;51.328;3.860;2023-06-10T14:09:30;8.90;;;5.53;;
30605;SDS011;17371;51.328;3.860;2023-06-10T14:11:55;7.67;;;5.13;;
30605;SDS011;17371;51.328;3.860;2023-06-10T14:14:21;9.87;;;5.07;;
30605;SDS011;17371;51.328;3.860;2023-06-10T14:16:46;6.77;;;5.13;;
30605;SDS011;17371;51.328;3.860;2023-06-10T14:19:12;6.53;;;4.90;;
30605;SDS011;17371;51.328;3.860;2023-06-10T14:21:37;6.47;;;4.65;;
30605;SDS011;17371;51.328;3.860;2023-06-10T14:24:04;6.37;;;4.90;;
30605;SDS011;17371;51.328;3.860;2023-06-10T14:26:29;7.43;;;5.13;;
30605;SDS011;17371;51.328;3.860;2023-06-10T14:28:55;10.70;;;5.13;;
30605;SDS011;17371;51.328;3.860;2023-06-10T14:31:20;6.93;;;5.30;;
30605;SDS011;17371;51.328;3.860;2023-06-10T14:33:45;6.93;;;5.07;;